Time,TemperatureF,DewpointF,PressureIn,WindDirection,WindDirectionDegrees,WindSpeedMPH,WindSpeedGustMPH,Humidity,HourlyPrecipIn,Conditions,Clouds,dailyrainin,SoftwareType,DateUTC
2013-04-11 00:00:00,57.2,56.4,29.84,West,260,0.0,0.0,97,0.21,,---,0.57,VWS V14.01,2013-04-11 04:00:00,
2013-04-11 00:05:00,57.2,56.4,29.81,NE,47,0.0,3.0,97,0.03,,---,0.00,VWS V14.01,2013-04-11 04:05:00,
2013-04-11 00:10:00,57.2,56.4,29.80,NE,48,0.0,3.0,97,0.03,,---,0.00,VWS V14.01,2013-04-11 04:10:00,
2013-04-11 00:15:00,57.2,56.4,29.82,NE,49,0.0,3.0,97,0.03,,---,0.00,VWS V14.01,2013-04-11 04:15:00,
2013-04-11 00:20:00,57.2,56.4,29.84,West,266,2.0,3.0,97,0.03,,---,0.00,VWS V14.01,2013-04-11 04:20:00,
2013-04-11 00:25:00,57.2,56.4,29.84,West,274,1.0,3.0,97,0.03,,---,0.00,VWS V14.01,2013-04-11 04:25:00,
2013-04-11 00:30:00,57.1,56.3,29.84,West,274,0.0,3.0,97,0.03,,---,0.00,VWS V14.01,2013-04-11 04:30:00,
2013-04-11 00:35:00,57.1,56.3,29.85,West,262,0.0,1.0,97,0.00,,---,0.00,VWS V14.01,2013-04-11 04:35:00,
2013-04-11 00:40:00,57.0,56.2,29.84,South,181,2.0,2.0,97,0.00,,---,0.00,VWS V14.01,2013-04-11 04:40:00,
2013-04-11 00:45:00,57.0,56.2,29.86,WSW,256,1.0,2.0,97,0.00,,---,0.00,VWS V14.01,2013-04-11 04:45:00,
2013-04-11 00:50:00,57.0,56.2,29.86,WSW,243,1.0,4.0,97,0.00,,---,0.00,VWS V14.01,2013-04-11 04:50:00,
2013-04-11 00:55:00,57.0,56.2,29.85,WSW,250,0.0,4.0,97,0.00,,---,0.00,VWS V14.01,2013-04-11 04:55:00,
2013-04-11 01:00:00,57.0,56.2,29.86,WSW,250,0.0,4.0,97,0.00,,---,0.00,VWS V14.01,2013-04-11 05:00:00,
2013-04-11 01:05:00,57.0,56.2,29.86,West,271,2.0,2.0,97,0.00,,---,0.00,VWS V14.01,2013-04-11 05:05:00,
2013-04-11 01:10:00,57.1,56.3,29.86,SW,218,1.0,2.0,97,0.00,,---,0.00,VWS V14.01,2013-04-11 05:10:00,
2013-04-11 01:15:00,57.1,56.3,29.85,SW,219,0.0,2.0,97,0.00,,---,0.00,VWS V14.01,2013-04-11 05:15:00,
2013-04-11 01:20:00,57.1,56.3,29.85,SW,228,0.0,2.0,97,0.00,,---,0.00,VWS V14.01,2013-04-11 05:20:00,
2013-04-11 01:25:00,57.1,56.3,29.85,SW,228,0.0,2.0,97,0.00,,---,0.00,VWS V14.01,2013-04-11 05:25:00,
2013-04-11 01:30:00,57.1,56.3,29.85,SW,228,0.0,2.0,97,0.00,,---,0.00,VWS V14.01,2013-04-11 05:30:00,
2013-04-11 01:35:00,57.1,56.3,29.84,SSE,163,1.0,1.0,97,0.00,,---,0.00,VWS V14.01,2013-04-11 05:35:00,
2013-04-11 01:40:00,57.1,56.3,29.83,SSE,163,0.0,1.0,97,0.00,,---,0.00,VWS V14.01,2013-04-11 05:40:00,
2013-04-11 01:45:00,57.1,56.3,29.82,SSE,165,0.0,1.0,97,0.00,,---,0.00,VWS V14.01,2013-04-11 05:45:00,
2013-04-11 01:50:00,57.0,56.2,29.82,SSE,165,0.0,1.0,97,0.00,,---,0.00,VWS V14.01,2013-04-11 05:50:00,
2013-04-11 01:55:00,56.9,56.1,29.82,SSE,165,0.0,1.0,97,0.00,,---,0.00,VWS V14.01,2013-04-11 05:55:00,
2013-04-11 02:00:00,56.9,56.3,29.83,SSE,165,0.0,1.0,98,0.00,,---,0.00,VWS V14.01,2013-04-11 06:00:00,
2013-04-11 02:05:00,56.9,56.3,29.82,SSE,164,0.0,0.0,98,0.00,,---,0.00,VWS V14.01,2013-04-11 06:05:00,
2013-04-11 02:10:00,56.8,56.2,29.82,SSE,163,0.0,0.0,98,0.00,,---,0.00,VWS V14.01,2013-04-11 06:10:00,
2013-04-11 02:15:00,56.9,56.3,29.81,SSE,163,0.0,0.0,98,0.00,,---,0.00,VWS V14.01,2013-04-11 06:15:00,
2013-04-11 02:20:00,56.8,56.2,29.81,SSE,165,0.0,0.0,98,0.00,,---,0.00,VWS V14.01,2013-04-11 06:20:00,
2013-04-11 02:25:00,56.8,56.2,29.80,SSE,163,0.0,0.0,98,0.01,,---,0.01,VWS V14.01,2013-04-11 06:25:00,
2013-04-11 02:30:00,56.8,56.2,29.80,SSE,165,0.0,0.0,98,0.01,,---,0.01,VWS V14.01,2013-04-11 06:30:00,
2013-04-11 02:35:00,56.8,56.2,29.80,SSE,165,0.0,0.0,98,0.01,,---,0.01,VWS V14.01,2013-04-11 06:35:00,
2013-04-11 02:40:00,56.8,56.2,29.80,SSE,163,0.0,0.0,98,0.01,,---,0.01,VWS V14.01,2013-04-11 06:40:00,
2013-04-11 02:45:00,56.8,56.2,29.79,SSE,163,0.0,0.0,98,0.01,,---,0.01,VWS V14.01,2013-04-11 06:45:00,
2013-04-11 02:50:00,56.9,56.3,29.79,SSE,164,0.0,0.0,98,0.01,,---,0.01,VWS V14.01,2013-04-11 06:50:00,
2013-04-11 02:55:00,56.9,56.3,29.80,SSE,163,0.0,0.0,98,0.01,,---,0.01,VWS V14.01,2013-04-11 06:55:00,
2013-04-11 03:00:00,57.0,56.4,29.79,SSE,163,0.0,0.0,98,0.01,,---,0.01,VWS V14.01,2013-04-11 07:00:00,
2013-04-11 03:05:00,57.0,56.4,29.80,SSE,165,0.0,0.0,98,0.01,,---,0.01,VWS V14.01,2013-04-11 07:05:00,
2013-04-11 03:10:00,56.9,56.3,29.81,South,174,0.0,0.0,98,0.01,,---,0.01,VWS V14.01,2013-04-11 07:10:00,
2013-04-11 03:15:00,56.9,56.3,29.81,West,273,2.0,3.0,98,0.01,,---,0.01,VWS V14.01,2013-04-11 07:15:00,
2013-04-11 03:20:00,57.0,56.4,29.81,NW,316,1.0,3.0,98,0.01,,---,0.01,VWS V14.01,2013-04-11 07:20:00,
2013-04-11 03:25:00,57.2,56.6,29.80,WNW,298,0.0,3.0,98,0.01,,---,0.01,VWS V14.01,2013-04-11 07:25:00,
2013-04-11 03:30:00,57.5,56.9,29.81,NW,315,1.0,3.0,98,0.01,,---,0.01,VWS V14.01,2013-04-11 07:30:00,
2013-04-11 03:35:00,57.7,57.1,29.81,NW,316,0.0,2.0,98,0.00,,---,0.01,VWS V14.01,2013-04-11 07:35:00,
2013-04-11 03:40:00,57.8,57.2,29.80,NNE,31,1.0,2.0,98,0.00,,---,0.01,VWS V14.01,2013-04-11 07:40:00,
2013-04-11 03:45:00,57.9,57.3,29.80,NE,50,0.0,3.0,98,0.00,,---,0.01,VWS V14.01,2013-04-11 07:45:00,
2013-04-11 03:50:00,57.9,57.3,29.81,NE,50,0.0,3.0,98,0.00,,---,0.01,VWS V14.01,2013-04-11 07:50:00,
2013-04-11 03:55:00,58.0,57.4,29.82,North,360,1.0,3.0,98,0.00,,---,0.01,VWS V14.01,2013-04-11 07:55:00,
2013-04-11 04:00:00,58.2,57.6,29.82,NE,40,4.0,4.0,98,0.00,,---,0.01,VWS V14.01,2013-04-11 08:00:00,
2013-04-11 04:05:00,58.3,57.5,29.83,NE,49,3.0,7.0,97,0.00,,---,0.01,VWS V14.01,2013-04-11 08:05:00,
2013-04-11 04:10:00,58.3,57.5,29.83,NE,41,1.0,7.0,97,0.00,,---,0.01,VWS V14.01,2013-04-11 08:10:00,
2013-04-11 04:15:00,58.2,57.4,29.83,NNE,14,1.0,7.0,97,0.00,,---,0.01,VWS V14.01,2013-04-11 08:15:00,
2013-04-11 04:20:00,58.1,57.3,29.84,NNE,27,5.0,7.0,97,0.00,,---,0.01,VWS V14.01,2013-04-11 08:20:00,
2013-04-11 04:25:00,57.8,56.7,29.85,NNE,14,2.0,7.0,96,0.00,,---,0.01,VWS V14.01,2013-04-11 08:25:00,
2013-04-11 04:30:00,57.0,55.3,29.85,North,349,2.0,8.0,94,0.00,,---,0.01,VWS V14.01,2013-04-11 08:30:00,
2013-04-11 04:35:00,56.4,54.7,29.85,NE,48,1.0,5.0,94,0.00,,---,0.01,VWS V14.01,2013-04-11 08:35:00,
2013-04-11 04:40:00,56.0,54.3,29.86,ENE,70,1.0,5.0,94,0.00,,---,0.01,VWS V14.01,2013-04-11 08:40:00,
2013-04-11 04:45:00,55.5,53.8,29.86,ENE,68,2.0,5.0,94,0.00,,---,0.01,VWS V14.01,2013-04-11 08:45:00,
2013-04-11 04:50:00,55.3,53.9,29.87,ESE,120,0.0,5.0,95,0.00,,---,0.01,VWS V14.01,2013-04-11 08:50:00,
2013-04-11 04:55:00,55.0,53.6,29.87,NE,36,0.0,5.0,95,0.00,,---,0.01,VWS V14.01,2013-04-11 08:55:00,
2013-04-11 05:00:00,54.6,52.9,29.87,North,4,0.0,5.0,94,0.00,,---,0.01,VWS V14.01,2013-04-11 09:00:00,
2013-04-11 05:05:00,54.1,52.4,29.87,NE,53,2.0,2.0,94,0.00,,---,0.01,VWS V14.01,2013-04-11 09:05:00,
2013-04-11 05:10:00,53.7,52.0,29.86,NE,40,2.0,4.0,94,0.00,,---,0.01,VWS V14.01,2013-04-11 09:10:00,
2013-04-11 05:15:00,53.4,51.7,29.87,NNE,27,2.0,5.0,94,0.00,,---,0.01,VWS V14.01,2013-04-11 09:15:00,
2013-04-11 05:20:00,53.3,51.6,29.87,NE,34,2.0,5.0,94,0.00,,---,0.01,VWS V14.01,2013-04-11 09:20:00,
2013-04-11 05:25:00,53.1,51.4,29.87,NE,37,0.0,5.0,94,0.00,,---,0.01,VWS V14.01,2013-04-11 09:25:00,
2013-04-11 05:29:00,53.0,51.3,29.88,NE,37,0.0,5.0,94,0.00,,---,0.01,VWS V14.01,2013-04-11 09:29:00,
2013-04-11 05:34:00,52.9,51.2,29.89,NE,37,0.0,0.0,94,0.00,,---,0.01,VWS V14.01,2013-04-11 09:34:00,
2013-04-11 05:39:00,52.9,51.5,29.90,North,350,1.0,2.0,95,0.00,,---,0.01,VWS V14.01,2013-04-11 09:39:00,
2013-04-11 05:44:00,52.8,51.1,29.90,North,349,1.0,2.0,94,0.00,,---,0.01,VWS V14.01,2013-04-11 09:44:00,
2013-04-11 05:49:00,52.6,50.9,29.90,NNE,30,2.0,3.0,94,0.00,,---,0.01,VWS V14.01,2013-04-11 09:49:00,
2013-04-11 05:54:00,52.6,50.9,29.90,NE,37,2.0,4.0,94,0.00,,---,0.01,VWS V14.01,2013-04-11 09:54:00,
2013-04-11 05:59:00,52.7,50.7,29.91,NNE,26,2.0,5.0,93,0.00,,---,0.01,VWS V14.01,2013-04-11 09:59:00,
2013-04-11 06:04:00,52.6,50.6,29.91,NE,51,3.0,3.0,93,0.00,,---,0.01,VWS V14.01,2013-04-11 10:04:00,
2013-04-11 06:09:00,52.4,50.2,29.91,NE,37,2.0,4.0,92,0.00,,---,0.01,VWS V14.01,2013-04-11 10:09:00,
2013-04-11 06:14:00,52.4,50.4,29.92,North,6,1.0,4.0,93,0.00,,---,0.01,VWS V14.01,2013-04-11 10:14:00,
2013-04-11 06:19:00,52.3,50.3,29.92,North,6,0.0,4.0,93,0.00,,---,0.01,VWS V14.01,2013-04-11 10:19:00,
2013-04-11 06:24:00,52.2,50.2,29.92,NE,49,2.0,4.0,93,0.00,,---,0.01,VWS V14.01,2013-04-11 10:24:00,
2013-04-11 06:29:00,52.0,50.0,29.92,SSE,158,2.0,4.0,93,0.00,,---,0.01,VWS V14.01,2013-04-11 10:29:00,
2013-04-11 06:34:00,51.9,49.9,29.92,SE,145,0.0,2.0,93,0.00,,---,0.01,VWS V14.01,2013-04-11 10:34:00,
2013-04-11 06:39:00,51.8,49.5,29.93,NE,42,2.0,3.0,92,0.00,,---,0.01,VWS V14.01,2013-04-11 10:39:00,
2013-04-11 06:44:00,51.6,49.1,29.93,NNE,26,1.0,7.0,91,0.00,,---,0.01,VWS V14.01,2013-04-11 10:44:00,
2013-04-11 06:49:00,51.5,49.3,29.93,NNE,33,4.0,7.0,92,0.00,,---,0.01,VWS V14.01,2013-04-11 10:49:00,
2013-04-11 06:54:00,51.4,48.9,29.93,NE,48,5.0,7.0,91,0.00,,---,0.01,VWS V14.01,2013-04-11 10:54:00,
2013-04-11 06:59:00,51.2,48.4,29.93,NNE,28,4.0,9.0,90,0.00,,---,0.01,VWS V14.01,2013-04-11 10:59:00,
2013-04-11 07:04:00,51.1,48.6,29.93,NNE,32,3.0,5.0,91,0.00,,---,0.01,VWS V14.01,2013-04-11 11:04:00,
2013-04-11 07:09:00,51.0,48.5,29.93,NNW,329,1.0,5.0,91,0.00,,---,0.01,VWS V14.01,2013-04-11 11:09:00,
2013-04-11 07:14:00,50.9,48.4,29.93,NE,45,2.0,5.0,91,0.00,,---,0.01,VWS V14.01,2013-04-11 11:14:00,
2013-04-11 07:19:00,50.9,48.7,29.94,NE,46,2.0,5.0,92,0.00,,---,0.01,VWS V14.01,2013-04-11 11:19:00,
2013-04-11 07:24:00,50.6,48.1,29.94,NE,42,4.0,5.0,91,0.00,,---,0.01,VWS V14.01,2013-04-11 11:24:00,
2013-04-11 07:29:00,50.4,47.9,29.94,NE,48,3.0,5.0,91,0.00,,---,0.01,VWS V14.01,2013-04-11 11:29:00,
2013-04-11 07:34:00,50.4,48.2,29.94,NNE,28,4.0,5.0,92,0.00,,---,0.01,VWS V14.01,2013-04-11 11:34:00,
2013-04-11 07:39:00,50.7,48.5,29.94,NNE,29,0.0,5.0,92,0.00,,---,0.01,VWS V14.01,2013-04-11 11:39:00,
2013-04-11 07:44:00,50.7,48.5,29.93,NE,46,1.0,5.0,92,0.00,,---,0.01,VWS V14.01,2013-04-11 11:44:00,
2013-04-11 07:49:00,50.7,47.9,29.93,NE,43,5.0,5.0,90,0.00,,---,0.01,VWS V14.01,2013-04-11 11:49:00,
2013-04-11 07:54:00,50.5,47.1,29.94,NE,50,8.0,9.0,88,0.00,,---,0.01,VWS V14.01,2013-04-11 11:54:00,
2013-04-11 07:59:00,50.5,47.1,29.94,NE,37,7.0,9.0,88,0.00,,---,0.01,VWS V14.01,2013-04-11 11:59:00,
2013-04-11 08:04:00,50.4,47.0,29.94,NE,46,3.0,6.0,88,0.00,,---,0.01,VWS V14.01,2013-04-11 12:04:00,
2013-04-11 08:09:00,50.4,47.0,29.94,NE,44,4.0,6.0,88,0.00,,---,0.01,VWS V14.01,2013-04-11 12:09:00,
2013-04-11 08:14:00,50.4,47.0,29.94,NNE,32,2.0,6.0,88,0.00,,---,0.01,VWS V14.01,2013-04-11 12:14:00,
2013-04-11 08:19:00,50.4,46.7,29.95,NE,37,5.0,7.0,87,0.00,,---,0.01,VWS V14.01,2013-04-11 12:19:00,
2013-04-11 08:24:00,50.4,47.0,29.95,NNE,22,6.0,10.0,88,0.00,,---,0.01,VWS V14.01,2013-04-11 12:24:00,
2013-04-11 08:29:00,50.5,46.8,29.95,NNE,33,4.0,10.0,87,0.00,,---,0.01,VWS V14.01,2013-04-11 12:29:00,
2013-04-11 08:34:00,50.5,46.8,29.95,ENE,58,3.0,7.0,87,0.00,,---,0.01,VWS V14.01,2013-04-11 12:34:00,
2013-04-11 08:39:00,50.6,46.9,29.95,ENE,57,3.0,7.0,87,0.00,,---,0.01,VWS V14.01,2013-04-11 12:39:00,
2013-04-11 08:44:00,50.6,46.9,29.95,NE,44,6.0,9.0,87,0.00,,---,0.01,VWS V14.01,2013-04-11 12:44:00,
2013-04-11 08:49:00,50.5,46.5,29.95,NNE,27,7.0,9.0,86,0.00,,---,0.01,VWS V14.01,2013-04-11 12:49:00,
2013-04-11 08:54:00,50.4,46.4,29.95,NNE,26,9.0,11.0,86,0.00,,---,0.01,VWS V14.01,2013-04-11 12:54:00,
2013-04-11 08:59:00,50.4,46.4,29.95,NNE,20,5.0,11.0,86,0.00,,---,0.01,VWS V14.01,2013-04-11 12:59:00,
2013-04-11 09:04:00,50.5,46.5,29.96,NNE,25,4.0,8.0,86,0.00,,---,0.01,VWS V14.01,2013-04-11 13:04:00,
2013-04-11 09:09:00,50.4,46.4,29.96,NE,39,8.0,10.0,86,0.00,,---,0.01,VWS V14.01,2013-04-11 13:09:00,
2013-04-11 09:14:00,50.4,46.4,29.96,NE,46,6.0,10.0,86,0.00,,---,0.01,VWS V14.01,2013-04-11 13:14:00,
2013-04-11 09:19:00,50.6,46.6,29.96,NNE,28,4.0,10.0,86,0.00,,---,0.01,VWS V14.01,2013-04-11 13:19:00,
2013-04-11 09:24:00,50.9,46.9,29.96,NE,43,3.0,10.0,86,0.00,,---,0.01,VWS V14.01,2013-04-11 13:24:00,
2013-04-11 09:29:00,51.1,46.8,29.96,NE,36,5.0,10.0,85,0.00,,---,0.01,VWS V14.01,2013-04-11 13:29:00,
2013-04-11 09:34:00,51.3,46.0,29.96,NE,43,4.0,7.0,82,0.00,,---,0.01,VWS V14.01,2013-04-11 13:34:00,
2013-04-11 09:39:00,51.5,46.5,29.96,ENE,57,3.0,7.0,83,0.00,,---,0.01,VWS V14.01,2013-04-11 13:39:00,
2013-04-11 09:44:00,51.7,46.4,29.95,North,349,3.0,7.0,82,0.00,,---,0.01,VWS V14.01,2013-04-11 13:44:00,
2013-04-11 09:49:00,52.1,46.8,29.96,ENE,68,2.0,7.0,82,0.00,,---,0.01,VWS V14.01,2013-04-11 13:49:00,
2013-04-11 09:54:00,52.6,46.9,29.96,NNE,28,4.0,7.0,81,0.00,,---,0.01,VWS V14.01,2013-04-11 13:54:00,
2013-04-11 09:59:00,52.7,46.7,29.96,NNE,31,5.0,7.0,80,0.00,,---,0.01,VWS V14.01,2013-04-11 13:59:00,
2013-04-11 10:04:00,53.0,46.7,29.97,NNE,23,2.0,6.0,79,0.00,,---,0.01,VWS V14.01,2013-04-11 14:04:00,
2013-04-11 10:09:00,53.1,46.8,29.97,NE,44,2.0,7.0,79,0.00,,---,0.01,VWS V14.01,2013-04-11 14:09:00,
2013-04-11 10:14:00,53.7,47.0,29.97,ENE,68,1.0,7.0,78,0.00,,---,0.01,VWS V14.01,2013-04-11 14:14:00,
2013-04-11 10:19:00,54.3,47.2,29.97,NNE,28,4.0,7.0,77,0.00,,---,0.01,VWS V14.01,2013-04-11 14:19:00,
2013-04-11 10:24:00,54.3,47.2,29.97,NE,38,4.0,7.0,77,0.00,,---,0.01,VWS V14.01,2013-04-11 14:24:00,
2013-04-11 10:29:00,54.2,47.2,29.97,NNE,27,6.0,7.0,77,0.00,,---,0.01,VWS V14.01,2013-04-11 14:29:00,
2013-04-11 10:34:00,54.2,47.2,29.96,NE,39,4.0,6.0,77,0.00,,---,0.01,VWS V14.01,2013-04-11 14:34:00,
2013-04-11 10:39:00,54.6,47.2,29.97,NNE,30,3.0,7.0,76,0.00,,---,0.01,VWS V14.01,2013-04-11 14:39:00,
2013-04-11 10:44:00,54.9,47.5,29.97,NNE,27,4.0,7.0,76,0.00,,---,0.01,VWS V14.01,2013-04-11 14:44:00,
2013-04-11 10:49:00,55.1,47.3,29.97,North,357,1.0,7.0,75,0.00,,---,0.01,VWS V14.01,2013-04-11 14:49:00,
2013-04-11 10:54:00,55.6,47.5,29.96,NNE,28,1.0,7.0,74,0.00,,---,0.01,VWS V14.01,2013-04-11 14:54:00,
2013-04-11 10:59:00,56.0,48.2,29.96,NE,42,3.0,8.0,75,0.00,,---,0.01,VWS V14.01,2013-04-11 14:59:00,
2013-04-11 11:04:00,56.3,47.8,29.97,NE,49,1.0,4.0,73,0.00,,---,0.01,VWS V14.01,2013-04-11 15:04:00,
2013-04-11 11:09:00,56.4,47.5,29.97,NNW,346,2.0,7.0,72,0.00,,---,0.01,VWS V14.01,2013-04-11 15:09:00,
2013-04-11 11:14:00,56.5,47.6,29.96,NE,37,1.0,7.0,72,0.00,,---,0.01,VWS V14.01,2013-04-11 15:14:00,
2013-04-11 11:19:00,56.7,47.4,29.96,NNE,27,9.0,9.0,71,0.00,,---,0.01,VWS V14.01,2013-04-11 15:19:00,
2013-04-11 11:24:00,56.7,47.4,29.96,NNE,19,2.0,9.0,71,0.00,,---,0.01,VWS V14.01,2013-04-11 15:24:00,
2013-04-11 11:29:00,56.9,47.2,29.96,NNE,33,5.0,9.0,70,0.00,,---,0.01,VWS V14.01,2013-04-11 15:29:00,
2013-04-11 11:34:00,57.0,46.9,29.97,NE,45,4.0,7.0,69,0.00,,---,0.01,VWS V14.01,2013-04-11 15:34:00,
2013-04-11 11:39:00,57.1,47.4,29.97,NNE,30,3.0,7.0,70,0.00,,---,0.01,VWS V14.01,2013-04-11 15:39:00,
2013-04-11 11:44:00,57.7,47.6,29.97,NE,44,2.0,7.0,69,0.00,,---,0.01,VWS V14.01,2013-04-11 15:44:00,
2013-04-11 11:49:00,57.9,47.0,29.97,East,90,1.0,7.0,67,0.00,,---,0.01,VWS V14.01,2013-04-11 15:49:00,
2013-04-11 11:54:00,59.0,48.1,29.97,NE,44,2.0,7.0,67,0.00,,---,0.01,VWS V14.01,2013-04-11 15:54:00,
2013-04-11 11:59:00,59.1,47.8,29.97,NNW,348,1.0,7.0,66,0.00,,---,0.01,VWS V14.01,2013-04-11 15:59:00,
2013-04-11 12:04:00,59.4,48.8,29.97,NNE,30,2.0,4.0,68,0.00,,---,0.01,VWS V14.01,2013-04-11 16:04:00,
2013-04-11 12:09:00,60.0,48.2,29.96,NE,51,4.0,4.0,65,0.00,,---,0.01,VWS V14.01,2013-04-11 16:09:00,
2013-04-11 12:14:00,60.3,48.9,29.96,SSE,150,1.0,6.0,66,0.00,,---,0.01,VWS V14.01,2013-04-11 16:14:00,
2013-04-11 12:19:00,61.0,47.9,29.96,SE,134,1.0,6.0,62,0.00,,---,0.01,VWS V14.01,2013-04-11 16:19:00,
2013-04-11 12:24:00,61.7,48.1,29.96,NE,44,5.0,7.0,61,0.00,,---,0.01,VWS V14.01,2013-04-11 16:24:00,
2013-04-11 12:29:00,61.5,48.8,29.96,ENE,61,1.0,7.0,63,0.00,,---,0.01,VWS V14.01,2013-04-11 16:29:00,
2013-04-11 12:34:00,61.4,47.4,29.96,NNE,16,0.0,6.0,60,0.00,,---,0.01,VWS V14.01,2013-04-11 16:34:00,
2013-04-11 12:39:00,61.3,48.6,29.96,NE,50,1.0,7.0,63,0.00,,---,0.01,VWS V14.01,2013-04-11 16:39:00,
2013-04-11 12:44:00,61.8,47.8,29.96,NNE,27,4.0,7.0,60,0.00,,---,0.01,VWS V14.01,2013-04-11 16:44:00,
2013-04-11 12:49:00,61.2,47.7,29.96,ENE,63,3.0,7.0,61,0.00,,---,0.01,VWS V14.01,2013-04-11 16:49:00,
2013-04-11 12:54:00,60.9,47.8,29.96,NNE,30,5.0,7.0,62,0.00,,---,0.01,VWS V14.01,2013-04-11 16:54:00,
2013-04-11 12:59:00,60.5,47.0,29.96,NW,308,1.0,7.0,61,0.00,,---,0.01,VWS V14.01,2013-04-11 16:59:00,
2013-04-11 13:04:00,61.0,47.5,29.96,NE,44,6.0,6.0,61,0.00,,---,0.01,VWS V14.01,2013-04-11 17:04:00,
2013-04-11 13:09:00,61.3,48.2,29.96,NE,45,6.0,6.0,62,0.00,,---,0.01,VWS V14.01,2013-04-11 17:09:00,
2013-04-11 13:14:00,61.6,47.6,29.96,East,87,0.0,6.0,60,0.00,,---,0.01,VWS V14.01,2013-04-11 17:14:00,
2013-04-11 13:19:00,61.3,47.8,29.96,NNE,30,4.0,7.0,61,0.00,,---,0.01,VWS V14.01,2013-04-11 17:19:00,
2013-04-11 13:24:00,60.9,47.4,29.96,NNE,32,6.0,9.0,61,0.00,,---,0.01,VWS V14.01,2013-04-11 17:24:00,
2013-04-11 13:29:00,60.9,46.9,29.96,NNE,31,3.0,9.0,60,0.00,,---,0.01,VWS V14.01,2013-04-11 17:29:00,
2013-04-11 13:34:00,60.8,46.8,29.96,NE,46,4.0,7.0,60,0.00,,---,0.01,VWS V14.01,2013-04-11 17:34:00,
2013-04-11 13:39:00,61.1,47.1,29.96,ENE,67,4.0,9.0,60,0.00,,---,0.01,VWS V14.01,2013-04-11 17:39:00,
2013-04-11 13:44:00,61.7,47.7,29.96,ENE,58,1.0,9.0,60,0.00,,---,0.01,VWS V14.01,2013-04-11 17:44:00,
2013-04-11 13:49:00,62.0,47.1,29.96,SE,129,1.0,9.0,58,0.00,,---,0.01,VWS V14.01,2013-04-11 17:49:00,
2013-04-11 13:54:00,62.5,47.5,29.96,ESE,107,1.0,9.0,58,0.00,,---,0.01,VWS V14.01,2013-04-11 17:54:00,
2013-04-11 13:59:00,62.2,47.3,29.96,NNE,27,5.0,9.0,58,0.00,,---,0.01,VWS V14.01,2013-04-11 17:59:00,
2013-04-11 14:04:00,62.0,47.1,29.96,ENE,75,1.0,4.0,58,0.00,,---,0.01,VWS V14.01,2013-04-11 18:04:00,
2013-04-11 14:09:00,62.0,46.1,29.96,NE,43,6.0,6.0,56,0.00,,---,0.01,VWS V14.01,2013-04-11 18:09:00,
2013-04-11 14:14:00,61.6,46.7,29.96,NE,39,3.0,8.0,58,0.00,,---,0.01,VWS V14.01,2013-04-11 18:14:00,
2013-04-11 14:19:00,61.4,46.0,29.96,NE,41,5.0,8.0,57,0.00,,---,0.01,VWS V14.01,2013-04-11 18:19:00,
2013-04-11 14:24:00,61.2,45.4,29.96,NNE,27,7.0,9.0,56,0.00,,---,0.01,VWS V14.01,2013-04-11 18:24:00,
2013-04-11 14:29:00,61.3,46.0,29.95,NNE,23,6.0,10.0,57,0.00,,---,0.01,VWS V14.01,2013-04-11 18:29:00,
2013-04-11 14:34:00,60.9,45.1,29.96,NNE,28,4.0,8.0,56,0.00,,---,0.01,VWS V14.01,2013-04-11 18:34:00,
2013-04-11 14:39:00,60.8,45.0,29.95,NE,37,6.0,8.0,56,0.00,,---,0.01,VWS V14.01,2013-04-11 18:39:00,
2013-04-11 14:44:00,60.9,46.0,29.95,ENE,58,5.0,9.0,58,0.00,,---,0.01,VWS V14.01,2013-04-11 18:44:00,
2013-04-11 14:49:00,60.8,45.0,29.95,NNE,21,6.0,9.0,56,0.00,,---,0.01,VWS V14.01,2013-04-11 18:49:00,
2013-04-11 14:54:00,60.7,45.4,29.95,NNE,30,6.0,9.0,57,0.00,,---,0.01,VWS V14.01,2013-04-11 18:54:00,
2013-04-11 14:59:00,60.4,43.7,29.96,NE,40,5.0,10.0,54,0.00,,---,0.01,VWS V14.01,2013-04-11 18:59:00,
2013-04-11 15:04:00,60.1,43.9,29.96,NNE,27,6.0,11.0,55,0.00,,---,0.01,VWS V14.01,2013-04-11 19:04:00,
2013-04-11 15:09:00,59.7,44.0,29.96,NE,34,7.0,11.0,56,0.00,,---,0.01,VWS V14.01,2013-04-11 19:09:00,
2013-04-11 15:14:00,59.6,43.4,29.96,NNE,27,8.0,11.0,55,0.00,,---,0.01,VWS V14.01,2013-04-11 19:14:00,
2013-04-11 15:19:00,59.6,42.5,29.96,NNE,33,6.0,11.0,53,0.00,,---,0.01,VWS V14.01,2013-04-11 19:19:00,
2013-04-11 15:24:00,59.3,42.7,29.96,NE,43,10.0,12.0,54,0.00,,---,0.01,VWS V14.01,2013-04-11 19:24:00,
2013-04-11 15:29:00,59.1,43.0,29.96,NNE,13,3.0,12.0,55,0.00,,---,0.01,VWS V14.01,2013-04-11 19:29:00,
2013-04-11 15:34:00,59.1,43.9,29.96,NNE,20,6.0,8.0,57,0.00,,---,0.01,VWS V14.01,2013-04-11 19:34:00,
2013-04-11 15:39:00,59.3,42.2,29.95,NE,38,5.0,8.0,53,0.00,,---,0.01,VWS V14.01,2013-04-11 19:39:00,
2013-04-11 15:44:00,59.0,42.4,29.95,NE,39,5.0,10.0,54,0.00,,---,0.01,VWS V14.01,2013-04-11 19:44:00,
2013-04-11 15:49:00,58.8,42.7,29.95,NNE,30,8.0,11.0,55,0.00,,---,0.01,VWS V14.01,2013-04-11 19:49:00,
2013-04-11 15:54:00,58.5,42.4,29.95,NE,44,9.0,12.0,55,0.00,,---,0.01,VWS V14.01,2013-04-11 19:54:00,
2013-04-11 15:59:00,58.4,42.3,29.95,NE,34,6.0,12.0,55,0.00,,---,0.01,VWS V14.01,2013-04-11 19:59:00,
2013-04-11 16:04:00,58.3,41.3,29.95,North,359,3.0,8.0,53,0.00,,---,0.01,VWS V14.01,2013-04-11 20:04:00,
2013-04-11 16:09:00,58.2,41.7,29.95,NNE,29,5.0,8.0,54,0.00,,---,0.01,VWS V14.01,2013-04-11 20:09:00,
2013-04-11 16:14:00,58.2,41.7,29.95,NE,38,7.0,8.0,54,0.00,,---,0.01,VWS V14.01,2013-04-11 20:14:00,
2013-04-11 16:19:00,58.3,43.2,29.95,NNE,30,6.0,9.0,57,0.00,,---,0.01,VWS V14.01,2013-04-11 20:19:00,
2013-04-11 16:24:00,58.4,42.3,29.95,NNE,27,8.0,11.0,55,0.00,,---,0.01,VWS V14.01,2013-04-11 20:24:00,
2013-04-11 16:29:00,57.9,42.8,29.95,NE,36,8.0,11.0,57,0.00,,---,0.01,VWS V14.01,2013-04-11 20:29:00,
2013-04-11 16:34:00,57.7,42.6,29.95,NE,49,6.0,8.0,57,0.00,,---,0.01,VWS V14.01,2013-04-11 20:34:00,
2013-04-11 16:39:00,57.6,42.0,29.95,NNE,30,9.0,11.0,56,0.00,,---,0.01,VWS V14.01,2013-04-11 20:39:00,
2013-04-11 16:44:00,57.2,42.6,29.96,NE,40,7.0,11.0,58,0.00,,---,0.01,VWS V14.01,2013-04-11 20:44:00,
2013-04-11 16:49:00,57.0,41.9,29.95,NNE,32,8.0,11.0,57,0.00,,---,0.01,VWS V14.01,2013-04-11 20:49:00,
2013-04-11 16:54:00,56.7,42.1,29.96,NE,50,7.0,12.0,58,0.00,,---,0.01,VWS V14.01,2013-04-11 20:54:00,
2013-04-11 16:59:00,56.5,41.9,29.96,NNE,27,11.0,12.0,58,0.00,,---,0.01,VWS V14.01,2013-04-11 20:59:00,
2013-04-11 17:04:00,56.2,41.2,29.96,NE,52,8.0,8.0,57,0.00,,---,0.01,VWS V14.01,2013-04-11 21:04:00,
2013-04-11 17:09:00,56.1,41.1,29.96,NNE,32,4.0,10.0,57,0.00,,---,0.01,VWS V14.01,2013-04-11 21:09:00,
2013-04-11 17:14:00,56.0,41.0,29.96,NE,39,6.0,10.0,57,0.00,,---,0.01,VWS V14.01,2013-04-11 21:14:00,
2013-04-11 17:19:00,56.0,42.3,29.96,NE,53,5.0,10.0,60,0.00,,---,0.01,VWS V14.01,2013-04-11 21:19:00,
2013-04-11 17:24:00,56.0,41.5,29.96,ENE,60,5.0,10.0,58,0.00,,---,0.01,VWS V14.01,2013-04-11 21:24:00,
2013-04-11 17:29:00,55.9,40.9,29.97,ENE,70,7.0,10.0,57,0.00,,---,0.01,VWS V14.01,2013-04-11 21:29:00,
2013-04-11 17:34:00,55.7,41.6,29.97,NE,46,4.0,9.0,59,0.00,,---,0.01,VWS V14.01,2013-04-11 21:34:00,
2013-04-11 17:39:00,55.5,41.9,29.97,NNE,33,7.0,9.0,60,0.00,,---,0.01,VWS V14.01,2013-04-11 21:39:00,
2013-04-11 17:44:00,55.5,41.4,29.97,ENE,66,2.0,9.0,59,0.00,,---,0.01,VWS V14.01,2013-04-11 21:44:00,
2013-04-11 17:49:00,55.5,41.0,29.98,ENE,73,1.0,9.0,58,0.00,,---,0.01,VWS V14.01,2013-04-11 21:49:00,
2013-04-11 17:54:00,55.3,41.2,29.98,NNE,33,7.0,10.0,59,0.00,,---,0.01,VWS V14.01,2013-04-11 21:54:00,
2013-04-11 17:59:00,54.9,40.9,29.98,NNE,32,4.0,10.0,59,0.00,,---,0.01,VWS V14.01,2013-04-11 21:59:00,
2013-04-11 18:04:00,54.8,41.6,29.98,NE,40,4.0,5.0,61,0.00,,---,0.01,VWS V14.01,2013-04-11 22:04:00,
2013-04-11 18:09:00,54.7,40.7,29.98,ENE,65,2.0,5.0,59,0.00,,---,0.01,VWS V14.01,2013-04-11 22:09:00,
2013-04-11 18:14:00,54.7,41.1,29.98,ENE,69,4.0,5.0,60,0.00,,---,0.01,VWS V14.01,2013-04-11 22:14:00,
2013-04-11 18:19:00,54.6,41.0,29.98,ENE,63,1.0,5.0,60,0.00,,---,0.01,VWS V14.01,2013-04-11 22:19:00,
2013-04-11 18:24:00,54.5,41.8,29.98,East,84,1.0,5.0,62,0.00,,---,0.01,VWS V14.01,2013-04-11 22:24:00,
2013-04-11 18:29:00,54.5,40.5,29.97,ENE,73,1.0,5.0,59,0.00,,---,0.01,VWS V14.01,2013-04-11 22:29:00,
2013-04-11 18:34:00,54.5,41.3,29.98,NE,43,1.0,5.0,61,0.00,,---,0.01,VWS V14.01,2013-04-11 22:34:00,
2013-04-11 18:39:00,54.3,41.2,29.98,NNE,30,3.0,5.0,61,0.00,,---,0.01,VWS V14.01,2013-04-11 22:39:00,
2013-04-11 18:44:00,54.2,41.5,29.98,NNE,29,4.0,7.0,62,0.00,,---,0.01,VWS V14.01,2013-04-11 22:44:00,
2013-04-11 18:49:00,54.1,41.0,29.98,NE,40,7.0,8.0,61,0.00,,---,0.01,VWS V14.01,2013-04-11 22:49:00,
2013-04-11 18:54:00,53.8,40.3,29.98,NNE,20,7.0,8.0,60,0.00,,---,0.01,VWS V14.01,2013-04-11 22:54:00,
2013-04-11 18:59:00,53.6,40.5,29.99,NE,38,6.0,8.0,61,0.00,,---,0.01,VWS V14.01,2013-04-11 22:59:00,
2013-04-11 19:04:00,53.3,39.8,29.99,NE,37,2.0,6.0,60,0.00,,---,0.01,VWS V14.01,2013-04-11 23:04:00,
2013-04-11 19:09:00,53.2,40.5,29.99,East,82,0.0,6.0,62,0.00,,---,0.01,VWS V14.01,2013-04-11 23:09:00,
2013-04-11 19:14:00,53.1,40.0,29.99,East,84,2.0,6.0,61,0.00,,---,0.01,VWS V14.01,2013-04-11 23:14:00,
2013-04-11 19:19:00,53.0,40.3,29.99,ENE,72,1.0,6.0,62,0.00,,---,0.01,VWS V14.01,2013-04-11 23:19:00,
2013-04-11 19:24:00,52.9,39.8,29.99,ENE,75,2.0,6.0,61,0.00,,---,0.01,VWS V14.01,2013-04-11 23:24:00,
2013-04-11 19:29:00,52.8,40.2,29.99,ENE,60,4.0,6.0,62,0.00,,---,0.01,VWS V14.01,2013-04-11 23:29:00,
2013-04-11 19:34:00,52.6,39.5,29.99,NE,43,3.0,5.0,61,0.00,,---,0.01,VWS V14.01,2013-04-11 23:34:00,
2013-04-11 19:39:00,52.5,40.3,29.99,NNE,31,4.0,5.0,63,0.00,,---,0.01,VWS V14.01,2013-04-11 23:39:00,
2013-04-11 19:44:00,52.5,39.9,29.99,NNE,29,3.0,5.0,62,0.00,,---,0.01,VWS V14.01,2013-04-11 23:44:00,
2013-04-11 19:49:00,52.4,40.6,29.99,ENE,66,3.0,5.0,64,0.00,,---,0.01,VWS V14.01,2013-04-11 23:49:00,
2013-04-11 19:54:00,52.3,39.7,30.00,East,82,1.0,5.0,62,0.00,,---,0.01,VWS V14.01,2013-04-11 23:54:00,
2013-04-11 19:59:00,52.3,40.1,30.00,ENE,71,0.0,5.0,63,0.00,,---,0.01,VWS V14.01,2013-04-11 23:59:00,
2013-04-11 20:04:00,52.3,39.7,30.01,East,82,1.0,2.0,62,0.00,,---,0.01,VWS V14.01,2013-04-12 00:04:00,
2013-04-11 20:09:00,52.3,45.3,30.01,SE,139,2.0,3.0,77,0.00,,---,0.01,VWS V14.01,2013-04-12 00:09:00,
2013-04-11 20:14:00,52.0,46.7,30.01,SE,132,1.0,3.0,82,0.00,,---,0.01,VWS V14.01,2013-04-12 00:14:00,
2013-04-11 20:19:00,51.6,46.9,30.02,SSE,159,1.0,4.0,84,0.00,,---,0.01,VWS V14.01,2013-04-12 00:19:00,
2013-04-11 20:24:00,51.2,47.2,30.02,SE,141,1.0,4.0,86,0.00,,---,0.01,VWS V14.01,2013-04-12 00:24:00,
2013-04-11 20:29:00,50.9,47.2,30.01,East,93,1.0,4.0,87,0.00,,---,0.01,VWS V14.01,2013-04-12 00:29:00,
2013-04-11 20:34:00,50.4,46.7,30.02,ESE,120,1.0,3.0,87,0.00,,---,0.01,VWS V14.01,2013-04-12 00:34:00,
2013-04-11 20:39:00,49.8,46.4,30.02,ESE,111,0.0,5.0,88,0.00,,---,0.01,VWS V14.01,2013-04-12 00:39:00,
2013-04-11 20:44:00,49.4,46.6,30.01,East,83,1.0,5.0,90,0.00,,---,0.01,VWS V14.01,2013-04-12 00:44:00,
2013-04-11 20:49:00,49.1,46.6,30.02,SSE,163,1.0,5.0,91,0.00,,---,0.01,VWS V14.01,2013-04-12 00:49:00,